Terminal Aerodrome Forecast
Issued by NWS Missoula, MT

Home | Current Version | Previous Version | Text Only | Print | Product List | Glossary On
Versions: 1 2 3 4 5 6 7 8 9 10 11 12 13 14 15 16 17 18 19 20 21
000
FTUS45 KMSO 171836 AAA
TAFMSO
TAF AMD
KMSO 171836Z 1719/1818 VRB03KT 1/2SM FZFG VV002
     FM171930 VRB03KT 1SM BR SCT050 BKN120
     FM172000 VRB03KT P6SM SCT015 BKN120
     FM180900 13006KT P6SM SCT100=

USA.gov is the U.S. government's official web portal to all federal, state and local government web resources and services.